9IL0 weather

Villiger Restricted Landing Area
Henry, Illinois, United States

Public forecast

Using degrees Fahrenheit for public forecast. Weather courtesy of forecast.io.

METAR (pilot weather report)

Closest report is Marshall County Airport, 4.5 nm (8.4 km) S. Retrieved 2019/06/19 04:35 UTC (0 seconds ago):

KC75 190435Z AUTO 00000KT 10SM CLR 18/16 A2985 RMK AO2 T01800160

TAF (pilot weather forecast)

Forecast is more than 12 hours old.

Closest forecast is General Wayne A. Downing Peoria International Airport, 29.4 nm (54.4 km) SSW. Retrieved 2019/06/18 00:36 UTC (1 day ago):

TAF KPIA 182334Z 1900/1924 00000KT P6SM SCT200 FM190700 VRB03KT 6SM BR BKN080 FM191100 VRB03KT 6SM BR BKN050 FM191500 VRB04KT P6SM VCSH BKN028 FM192000 VRB03KT 6SM -SHRA BR VCTS OVC025CB